createdAt,value
2018-05-01T00:01:35.434Z,10.30
2018-05-01T00:06:27.085Z,10.20
2018-05-01T00:11:17.978Z,10.20
2018-05-01T00:16:09.618Z,10.20
2018-05-01T00:21:01.254Z,10.10
2018-05-01T00:25:52.898Z,10.10
2018-05-01T00:30:44.514Z,10.10
2018-05-01T00:35:35.414Z,10.10
2018-05-01T00:40:26.313Z,10.10
2018-05-01T00:45:17.204Z,10.10
2018-05-01T00:50:08.100Z,10.10
2018-05-01T00:54:59.724Z,10.20
2018-05-01T00:59:51.373Z,10.30
2018-05-01T01:04:42.997Z,10.40
2018-05-01T01:09:34.642Z,10.50
2018-05-01T01:14:26.276Z,10.60
2018-05-01T01:19:17.895Z,10.70
2018-05-01T01:24:08.776Z,10.70
2018-05-01T01:28:59.681Z,10.80
2018-05-01T01:33:50.563Z,10.90
2018-05-01T01:38:42.134Z,11.10
2018-05-01T01:43:32.962Z,11.00
2018-05-01T01:48:23.780Z,11.20
2018-05-01T01:53:14.596Z,11.30
2018-05-01T01:58:05.436Z,11.40
2018-05-01T02:02:56.261Z,11.40
2018-05-01T02:07:47.081Z,11.50
2018-05-01T02:12:37.903Z,11.60
2018-05-01T02:17:29.477Z,11.70
2018-05-01T02:22:20.309Z,11.60
2018-05-01T02:27:11.215Z,11.70
2018-05-01T02:32:01.982Z,11.70
2018-05-01T02:36:53.550Z,11.70
2018-05-01T02:41:44.364Z,11.70
2018-05-01T02:46:35.190Z,11.70
2018-05-01T02:51:26.007Z,11.70
2018-05-01T02:56:16.834Z,11.70
2018-05-01T03:01:07.660Z,11.70
2018-05-01T03:05:58.487Z,11.60
2018-05-01T03:10:50.049Z,11.50
2018-05-01T03:15:41.626Z,11.40
2018-05-01T03:20:32.439Z,11.40
2018-05-01T03:25:23.302Z,11.40
2018-05-01T03:30:14.083Z,11.40
2018-05-01T03:35:04.900Z,11.40
2018-05-01T03:39:55.712Z,11.50
2018-05-01T03:44:46.532Z,11.40
2018-05-01T03:49:37.359Z,11.50
2018-05-01T03:54:28.175Z,11.50
2018-05-01T03:59:19.010Z,11.50
2018-05-01T04:04:09.832Z,11.60
2018-05-01T04:09:00.662Z,11.60
2018-05-01T04:13:52.234Z,11.70
2018-05-01T04:18:43.056Z,11.70
2018-05-01T04:23:34.630Z,11.80
2018-05-01T04:28:25.465Z,11.80
2018-05-01T04:33:17.034Z,11.90
2018-05-01T04:38:07.847Z,11.90
2018-05-01T04:42:58.660Z,12.00
2018-05-01T04:47:49.490Z,12.00
2018-05-01T04:52:40.309Z,12.10
2018-05-01T04:57:31.142Z,12.10
2018-05-01T05:02:21.960Z,12.20
2018-05-01T05:07:12.794Z,12.20
2018-05-01T05:12:03.629Z,12.20
2018-05-01T05:16:55.190Z,12.20
2018-05-01T05:21:46.012Z,12.20
2018-05-01T05:26:36.828Z,12.20
2018-05-01T05:31:27.660Z,12.20
2018-05-01T05:36:18.484Z,12.20
2018-05-01T05:41:09.326Z,12.20
2018-05-01T05:46:00.161Z,12.20
2018-05-01T05:50:51.733Z,12.30
2018-05-01T05:55:42.579Z,12.30
2018-05-01T06:00:33.400Z,12.40
2018-05-01T06:05:24.207Z,12.40
2018-05-01T06:10:16.380Z,12.40
2018-05-01T06:15:07.949Z,12.60
2018-05-01T06:19:58.764Z,12.60
2018-05-01T06:24:49.575Z,12.60
2018-05-01T06:29:40.406Z,12.70
2018-05-01T06:34:31.219Z,12.80
2018-05-01T06:39:22.044Z,12.80
2018-05-01T06:44:12.873Z,12.90
2018-05-01T06:49:03.705Z,13.00
2018-05-01T06:53:54.541Z,13.10
2018-05-01T06:58:45.363Z,13.20
2018-05-01T07:03:36.189Z,13.30
2018-05-01T07:08:27.762Z,13.40
2018-05-01T07:13:18.604Z,13.40
2018-05-01T07:18:09.416Z,13.50
2018-05-01T07:23:00.250Z,13.50
2018-05-01T07:27:51.076Z,13.60
2018-05-01T07:32:41.910Z,13.60
2018-05-01T07:37:33.485Z,13.60
2018-05-01T07:42:24.325Z,13.60
2018-05-01T07:47:15.156Z,13.70
2018-05-01T07:52:05.976Z,13.70
2018-05-01T07:56:56.794Z,13.70
2018-05-01T08:01:47.719Z,13.70
2018-05-01T08:06:39.283Z,13.70
2018-05-01T08:11:30.110Z,13.70
2018-05-01T08:16:20.953Z,13.80
2018-05-01T08:21:11.790Z,13.80
2018-05-01T08:26:02.607Z,13.80
2018-05-01T08:30:53.444Z,13.90
2018-05-01T08:35:45.010Z,14.00
2018-05-01T08:40:35.841Z,14.00
2018-05-01T08:45:26.670Z,14.10
2018-05-01T08:50:17.504Z,14.10
2018-05-01T08:55:08.329Z,14.00
2018-05-01T08:59:59.905Z,14.00
2018-05-01T09:04:50.727Z,13.90
2018-05-01T09:09:41.540Z,13.90
2018-05-01T09:14:32.370Z,14.00
2018-05-01T09:19:23.206Z,14.00
2018-05-01T09:24:14.037Z,14.00
2018-05-01T09:29:04.905Z,14.10
2018-05-01T09:33:55.724Z,14.10
2018-05-01T09:38:46.535Z,14.10
2018-05-01T09:43:37.374Z,14.10
2018-05-01T09:48:28.193Z,14.20
2018-05-01T09:53:19.172Z,14.30
2018-05-01T09:58:10.018Z,14.30
2018-05-01T10:03:00.920Z,14.40
2018-05-01T10:07:51.822Z,14.40
2018-05-01T10:12:42.708Z,14.50
2018-05-01T10:17:33.600Z,14.60
2018-05-01T10:22:24.481Z,14.80
2018-05-01T10:27:15.384Z,14.90
2018-05-01T10:32:07.019Z,15.00
2018-05-01T10:36:58.657Z,15.10
2018-05-01T10:41:50.303Z,15.30
2018-05-01T10:46:41.207Z,15.20
2018-05-01T10:51:32.846Z,15.50
2018-05-01T10:56:24.529Z,15.70
2018-05-01T11:01:15.476Z,15.70
2018-05-01T11:06:06.372Z,15.90
2018-05-01T11:10:57.260Z,16.10
2018-05-01T11:15:48.143Z,16.30
2018-05-01T11:20:39.778Z,16.70
2018-05-01T11:25:31.399Z,17.00
2018-05-01T11:30:22.288Z,17.00
2018-05-01T11:35:13.167Z,17.40
2018-05-01T11:40:04.052Z,18.00
2018-05-01T11:44:54.985Z,18.50
2018-05-01T11:49:45.884Z,19.00
2018-05-01T11:54:36.779Z,19.50
2018-05-01T11:59:27.706Z,19.90
2018-05-01T12:04:18.594Z,20.20
2018-05-01T12:09:09.488Z,20.30
2018-05-01T12:14:01.150Z,20.50
2018-05-01T12:18:52.084Z,20.50
2018-05-01T12:23:43.065Z,20.70
2018-05-01T12:28:33.896Z,20.90
2018-05-01T12:33:24.818Z,21.10
2018-05-01T12:38:15.707Z,21.20
2018-05-01T12:43:07.348Z,21.50
2018-05-01T12:47:59.036Z,21.60
2018-05-01T12:52:49.920Z,21.60
2018-05-01T12:57:40.825Z,21.50
2018-05-01T13:02:31.734Z,21.40
2018-05-01T13:07:23.390Z,21.00
2018-05-01T13:12:14.267Z,21.00
2018-05-01T13:17:05.282Z,20.70
2018-05-01T13:21:56.163Z,20.50
2018-05-01T13:26:47.043Z,20.20
2018-05-01T13:31:38.707Z,19.80
2018-05-01T13:36:29.604Z,19.80
2018-05-01T13:41:21.231Z,19.40
2018-05-01T13:46:12.928Z,19.20
2018-05-01T13:51:03.812Z,19.20
2018-05-01T13:55:54.721Z,19.00
2018-05-01T14:00:45.643Z,18.80
2018-05-01T14:05:37.265Z,18.50
2018-05-01T14:10:28.902Z,18.30
2018-05-01T14:15:19.805Z,18.40
2018-05-01T14:20:11.462Z,18.10
2018-05-01T14:25:02.374Z,18.00
2018-05-01T14:29:54.000Z,18.20
2018-05-01T14:34:45.696Z,18.40
2018-05-01T14:39:36.579Z,18.40
2018-05-01T14:44:27.473Z,18.60
2018-05-01T14:49:19.095Z,19.20
2018-05-01T14:54:09.975Z,19.20
2018-05-01T14:59:00.894Z,19.60
2018-05-01T15:03:51.808Z,19.90
2018-05-01T15:08:42.688Z,20.30
2018-05-01T15:13:34.312Z,20.60
2018-05-01T15:18:25.936Z,20.50
2018-05-01T15:23:16.838Z,20.50
2018-05-01T15:28:07.726Z,20.50
2018-05-01T15:32:58.627Z,20.40
2018-05-01T15:37:49.592Z,20.30
2018-05-01T15:42:40.522Z,20.20
2018-05-01T15:47:31.405Z,20.10
2018-05-01T15:52:22.279Z,20.10
2018-05-01T15:57:13.911Z,19.70
2018-05-01T16:02:05.537Z,19.50
2018-05-01T16:06:56.420Z,19.50
2018-05-01T16:11:47.454Z,19.30
2018-05-01T16:16:38.338Z,19.10
2018-05-01T16:21:29.250Z,18.90
2018-05-01T16:26:20.163Z,18.70
2018-05-01T16:31:11.078Z,18.50
2018-05-01T16:36:02.103Z,18.30
2018-05-01T16:40:52.937Z,18.10
2018-05-01T16:45:43.903Z,18.00
2018-05-01T16:50:34.741Z,17.70
2018-05-01T16:55:25.633Z,17.60
2018-05-01T17:00:16.538Z,17.40
2018-05-01T17:05:07.433Z,17.20
2018-05-01T17:09:58.406Z,17.00
2018-05-01T17:14:50.541Z,16.60
2018-05-01T17:19:41.428Z,16.60
2018-05-01T17:24:32.353Z,16.40
2018-05-01T17:34:45.425Z,16.10
2018-05-01T17:39:36.323Z,15.90
2018-05-01T17:44:27.398Z,15.70
2018-05-01T17:49:19.045Z,15.40
2018-05-01T17:54:10.761Z,15.20
2018-05-01T17:59:01.670Z,15.20
2018-05-01T18:03:52.571Z,15.10
2018-05-01T18:08:43.488Z,14.90
2018-05-01T18:13:34.371Z,14.70
2018-05-01T18:18:26.000Z,14.40
2018-05-01T18:23:17.707Z,14.30
2018-05-01T18:28:09.346Z,14.10
2018-05-01T18:33:00.342Z,14.10
2018-05-01T18:37:51.237Z,13.90
2018-05-01T18:42:42.128Z,13.80
2018-05-01T18:47:33.829Z,13.40
2018-05-01T18:52:25.391Z,13.20
2018-05-01T18:57:17.156Z,13.00
2018-05-01T19:02:08.118Z,13.00
2018-05-01T19:06:59.009Z,12.80
2018-05-01T19:11:50.005Z,12.60
2018-05-01T19:16:40.985Z,12.40
2018-05-01T19:21:31.879Z,12.20
2018-05-01T19:26:22.769Z,12.00
2018-05-01T19:31:13.676Z,11.90
2018-05-01T19:36:04.621Z,11.70
2018-05-01T19:40:55.553Z,11.50
2018-05-01T19:45:46.486Z,11.30
2018-05-01T19:50:37.380Z,11.20
2018-05-01T19:55:28.271Z,11.00
2018-05-01T20:00:19.172Z,10.80
2018-05-01T20:05:10.813Z,10.50
2018-05-01T20:10:01.789Z,10.50
2018-05-01T20:14:52.710Z,10.40
2018-05-01T20:19:43.610Z,10.30
2018-05-01T20:24:34.564Z,10.10
2018-05-01T20:29:25.497Z,10.00
2018-05-01T20:34:16.461Z,9.80
2018-05-01T20:39:07.387Z,9.70
2018-05-01T20:43:58.312Z,9.60
2018-05-01T20:48:49.204Z,9.50
2018-05-01T20:53:40.106Z,9.30
2018-05-01T20:58:31.724Z,9.10
2018-05-01T21:03:22.756Z,9.10
2018-05-01T21:08:14.385Z,8.80
2018-05-01T21:13:06.032Z,8.70
2018-05-01T21:17:57.673Z,8.60
2018-05-01T21:22:48.585Z,8.60
2018-05-01T21:27:40.212Z,8.40
2018-05-01T21:32:31.844Z,8.30
2018-05-01T21:37:23.500Z,8.20
2018-05-01T21:42:14.383Z,8.20
2018-05-01T21:47:05.395Z,8.10
2018-05-01T21:51:56.289Z,8.00
2018-05-01T21:56:47.177Z,7.90
2018-05-01T22:01:38.063Z,7.80
2018-05-01T22:06:28.953Z,7.70
2018-05-01T22:11:19.844Z,7.60
2018-05-01T22:16:10.741Z,7.50
2018-05-01T22:21:02.367Z,7.30
2018-05-01T22:25:54.005Z,7.20
2018-05-01T22:30:45.650Z,7.10
2018-05-01T22:35:36.557Z,7.10
2018-05-01T22:40:28.179Z,7.00
2018-05-01T22:45:19.190Z,6.90
2018-05-01T22:50:10.821Z,6.80
2018-05-01T22:55:01.720Z,6.80
2018-05-01T22:59:52.607Z,6.70
2018-05-01T23:04:43.552Z,6.70
2018-05-01T23:09:34.445Z,6.60
2018-05-01T23:14:25.326Z,6.50
2018-05-01T23:19:16.978Z,6.40
2018-05-01T23:24:08.603Z,6.30
2018-05-01T23:29:00.245Z,6.30
2018-05-01T23:33:51.923Z,6.20
2018-05-01T23:38:42.776Z,6.20
2018-05-01T23:43:33.670Z,6.10
2018-05-01T23:48:24.571Z,6.10
2018-05-01T23:53:15.455Z,6.00
2018-05-01T23:58:07.075Z,5.80
